createdAt,value
2023-10-20T00:01:11.017Z,85.14
2023-10-20T00:03:40.242Z,85.42
2023-10-20T00:06:10.351Z,85.39
2023-10-20T00:08:39.372Z,85.41
2023-10-20T00:11:08.697Z,85.67
2023-10-20T00:13:37.667Z,85.62
2023-10-20T00:16:08.428Z,85.49
2023-10-20T00:18:38.823Z,85.52
2023-10-20T00:21:07.730Z,85.21
2023-10-20T00:23:36.714Z,85.62
2023-10-20T00:26:05.558Z,85.88
2023-10-20T00:28:34.330Z,85.88
2023-10-20T00:31:03.815Z,85.48
2023-10-20T00:33:32.639Z,85.38
2023-10-20T00:36:02.981Z,85.58
2023-10-20T00:38:32.895Z,85.75
2023-10-20T00:41:01.790Z,85.75
2023-10-20T00:43:38.015Z,85.78
2023-10-20T00:46:07.875Z,86.02
2023-10-20T00:48:38.433Z,86.11
2023-10-20T00:51:09.897Z,86.22
2023-10-20T00:53:39.860Z,86.09
2023-10-20T00:56:08.935Z,86.18
2023-10-20T00:58:39.063Z,86.08
2023-10-20T01:01:08.351Z,86.41
2023-10-20T01:03:37.644Z,85.92
2023-10-20T01:06:07.261Z,86.21
2023-10-20T01:08:37.624Z,85.88
2023-10-20T01:11:07.099Z,86.45
2023-10-20T01:13:35.991Z,86.30
2023-10-20T01:16:05.747Z,86.66
2023-10-20T01:18:35.247Z,86.21
2023-10-20T01:21:04.282Z,86.44
2023-10-20T01:23:33.534Z,86.50
2023-10-20T01:26:03.839Z,86.44
2023-10-20T01:28:32.800Z,86.38
2023-10-20T01:31:01.576Z,86.59
2023-10-20T01:33:30.553Z,86.61
2023-10-20T01:35:59.463Z,87.11
2023-10-20T01:38:28.471Z,86.98
2023-10-20T01:40:57.447Z,87.02
2023-10-20T01:43:27.872Z,86.82
2023-10-20T01:45:56.722Z,87.00
2023-10-20T01:48:25.853Z,87.26
2023-10-20T01:50:54.733Z,87.42
2023-10-20T01:53:24.123Z,87.21
2023-10-20T01:55:52.842Z,87.40
2023-10-20T01:58:22.948Z,88.29
2023-10-20T02:00:54.027Z,88.25
2023-10-20T02:03:26.609Z,88.08
2023-10-20T02:05:55.614Z,88.26
2023-10-20T02:08:24.593Z,87.92
2023-10-20T02:10:53.533Z,87.54
2023-10-20T02:13:22.405Z,87.07
2023-10-20T02:15:52.757Z,86.63
2023-10-20T02:18:21.560Z,86.00
2023-10-20T02:21:05.257Z,85.56
2023-10-20T02:23:36.129Z,85.24
2023-10-20T02:26:07.380Z,84.87
2023-10-20T02:28:36.404Z,84.33
2023-10-20T02:31:15.341Z,84.26
2023-10-20T02:33:45.674Z,84.01
2023-10-20T02:36:19.616Z,83.86
2023-10-20T02:38:53.452Z,83.73
2023-10-20T02:41:23.043Z,83.69
2023-10-20T02:43:51.839Z,83.33
2023-10-20T02:46:22.172Z,83.00
2023-10-20T02:48:51.062Z,82.72
2023-10-20T02:51:19.910Z,82.37
2023-10-20T02:53:49.220Z,82.44
2023-10-20T02:56:20.344Z,82.22
2023-10-20T02:58:49.509Z,82.04
2023-10-20T03:01:19.616Z,82.01
2023-10-20T03:03:50.027Z,81.95
2023-10-20T03:06:20.911Z,82.13
2023-10-20T03:08:50.242Z,82.10
2023-10-20T03:11:19.125Z,82.09
2023-10-20T03:13:48.444Z,82.04
2023-10-20T03:16:17.325Z,81.90
2023-10-20T03:18:46.561Z,82.00
2023-10-20T03:21:16.900Z,82.07
2023-10-20T03:23:46.021Z,82.24
2023-10-20T03:26:15.135Z,81.86
2023-10-20T03:28:45.213Z,81.89
2023-10-20T03:31:14.165Z,82.15
2023-10-20T03:33:43.185Z,82.02
2023-10-20T03:36:13.669Z,82.06
2023-10-20T03:38:44.995Z,82.34
2023-10-20T03:41:15.912Z,82.26
2023-10-20T03:43:47.307Z,82.34
2023-10-20T03:46:17.564Z,82.41
2023-10-20T03:48:46.869Z,82.22
2023-10-20T03:51:15.906Z,82.27
2023-10-20T03:53:51.959Z,82.06
2023-10-20T03:56:23.807Z,82.35
2023-10-20T03:58:53.009Z,82.13
2023-10-20T04:01:23.214Z,82.29
2023-10-20T04:03:52.874Z,82.32
2023-10-20T04:06:23.661Z,82.14
2023-10-20T04:08:53.977Z,82.31
2023-10-20T04:11:24.979Z,82.07
2023-10-20T04:13:54.067Z,81.95
2023-10-20T04:16:24.994Z,81.96
2023-10-20T04:18:53.940Z,81.89
2023-10-20T04:21:23.531Z,82.22
2023-10-20T04:23:53.828Z,82.38
2023-10-20T04:26:23.026Z,81.63
2023-10-20T04:29:06.671Z,81.47
2023-10-20T04:31:45.442Z,81.21
2023-10-20T04:34:31.216Z,81.25
2023-10-20T04:37:10.126Z,81.31
2023-10-20T04:39:49.584Z,81.44
2023-10-20T04:42:28.047Z,81.27
2023-10-20T04:45:21.132Z,81.40
2023-10-20T04:48:09.655Z,81.66
2023-10-20T04:51:10.567Z,81.92
2023-10-20T04:53:50.074Z,81.66
2023-10-20T04:56:29.344Z,81.50
2023-10-20T04:59:00.947Z,81.41
2023-10-20T05:01:31.820Z,81.26
2023-10-20T05:04:14.501Z,81.22
2023-10-20T05:06:46.170Z,81.02
2023-10-20T05:09:19.117Z,80.92
2023-10-20T05:11:50.855Z,80.91
2023-10-20T05:14:19.966Z,81.03
2023-10-20T05:16:48.883Z,81.24
2023-10-20T05:19:18.189Z,81.13
2023-10-20T05:21:47.132Z,81.12
2023-10-20T05:24:16.015Z,80.74
2023-10-20T05:26:49.246Z,80.89
2023-10-20T05:29:19.509Z,81.10
2023-10-20T05:31:48.314Z,81.47
2023-10-20T05:34:17.337Z,81.56
2023-10-20T05:36:46.012Z,81.38
2023-10-20T05:39:16.113Z,80.83
2023-10-20T05:41:46.120Z,80.77
2023-10-20T05:44:18.985Z,80.57
2023-10-20T05:46:47.932Z,80.19
2023-10-20T05:49:16.730Z,79.94
2023-10-20T05:51:46.892Z,79.85
2023-10-20T05:54:16.670Z,79.68
2023-10-20T05:56:45.516Z,79.97
2023-10-20T05:59:15.817Z,79.29
2023-10-20T06:01:44.665Z,79.08
2023-10-20T06:04:13.573Z,79.08
2023-10-20T06:06:42.843Z,78.92
2023-10-20T06:09:11.606Z,78.59
2023-10-20T06:11:40.527Z,78.62
2023-10-20T06:14:09.362Z,78.42
2023-10-20T06:16:40.208Z,78.55
2023-10-20T06:19:09.186Z,78.71
2023-10-20T06:21:37.921Z,78.69
2023-10-20T06:24:07.430Z,78.51
2023-10-20T06:26:39.492Z,78.36
2023-10-20T06:29:25.338Z,78.23
2023-10-20T06:31:59.657Z,77.73
2023-10-20T06:34:28.639Z,77.53
2023-10-20T06:37:08.583Z,77.57
2023-10-20T06:39:38.821Z,77.47
2023-10-20T06:42:07.842Z,77.31
2023-10-20T06:44:36.918Z,77.39
2023-10-20T06:47:07.366Z,77.02
2023-10-20T06:49:36.009Z,76.80
2023-10-20T06:52:05.509Z,76.83
2023-10-20T06:54:34.731Z,76.61
2023-10-20T06:57:03.684Z,76.49
2023-10-20T06:59:32.414Z,76.11
2023-10-20T07:02:02.577Z,76.35
2023-10-20T07:04:33.427Z,76.29
2023-10-20T07:07:03.873Z,76.29
2023-10-20T07:09:32.552Z,75.98
2023-10-20T07:12:02.611Z,75.99
2023-10-20T07:14:32.981Z,76.23
2023-10-20T07:17:04.911Z,76.34
2023-10-20T07:19:36.187Z,76.40
2023-10-20T07:22:05.478Z,76.15
2023-10-20T07:24:35.291Z,76.06
2023-10-20T07:27:04.766Z,75.75
2023-10-20T07:29:34.333Z,75.43
2023-10-20T07:32:05.498Z,75.73
2023-10-20T07:34:37.226Z,75.54
2023-10-20T07:37:08.278Z,75.02
2023-10-20T07:39:37.207Z,75.14
2023-10-20T07:42:06.319Z,75.18
2023-10-20T07:44:35.395Z,75.29
2023-10-20T07:47:04.367Z,75.03
2023-10-20T07:49:33.266Z,74.78
2023-10-20T07:52:04.665Z,74.40
2023-10-20T07:54:33.755Z,73.75
2023-10-20T07:57:02.637Z,73.56
2023-10-20T07:59:31.512Z,73.37
2023-10-20T08:02:00.497Z,72.91
2023-10-20T08:04:29.800Z,72.88
2023-10-20T08:07:01.624Z,72.48
2023-10-20T08:09:35.569Z,72.35
2023-10-20T08:12:05.231Z,72.29
2023-10-20T08:14:35.398Z,72.26
2023-10-20T08:17:09.074Z,72.13
2023-10-20T08:19:38.266Z,72.10
2023-10-20T08:22:06.887Z,72.17
2023-10-20T08:24:37.330Z,72.16
2023-10-20T08:27:06.176Z,72.06
2023-10-20T08:29:35.210Z,72.25
2023-10-20T08:32:05.124Z,71.90
2023-10-20T08:34:34.177Z,72.14
2023-10-20T08:37:04.144Z,71.89
2023-10-20T08:39:33.424Z,71.94
2023-10-20T08:42:04.238Z,71.90
2023-10-20T08:44:33.426Z,71.69
2023-10-20T08:47:02.550Z,71.65
2023-10-20T08:49:31.772Z,72.01
2023-10-20T08:52:05.765Z,71.49
2023-10-20T08:54:34.879Z,71.25
2023-10-20T08:57:05.172Z,71.10
2023-10-20T08:59:37.763Z,70.38
2023-10-20T09:02:08.525Z,70.39
2023-10-20T09:04:38.756Z,70.25
2023-10-20T09:07:15.313Z,70.19
2023-10-20T09:09:44.401Z,70.01
2023-10-20T09:12:14.962Z,70.03
2023-10-20T09:14:43.821Z,70.34
2023-10-20T09:17:23.648Z,70.38
2023-10-20T09:19:52.688Z,70.16
2023-10-20T09:22:30.540Z,69.76
2023-10-20T09:24:59.517Z,70.04
2023-10-20T09:27:29.705Z,69.96
2023-10-20T09:29:59.680Z,70.48
2023-10-20T09:32:29.039Z,70.52
2023-10-20T09:34:59.072Z,70.74
2023-10-20T09:37:31.708Z,70.73
2023-10-20T09:40:08.335Z,70.83
2023-10-20T09:42:51.118Z,70.59
2023-10-20T09:45:26.433Z,70.54
2023-10-20T09:47:59.372Z,69.84
2023-10-20T09:50:33.278Z,68.99
2023-10-20T09:53:02.896Z,68.37
2023-10-20T09:55:32.473Z,67.81
2023-10-20T09:58:03.415Z,67.57
2023-10-20T10:00:34.218Z,67.43
2023-10-20T10:03:03.940Z,66.70
2023-10-20T10:05:32.929Z,66.36
2023-10-20T10:08:09.604Z,65.93
2023-10-20T10:10:38.935Z,65.61
2023-10-20T10:13:09.924Z,65.65
2023-10-20T10:15:43.285Z,64.89
2023-10-20T10:18:15.101Z,64.08
2023-10-20T10:20:47.263Z,63.82
2023-10-20T10:23:17.484Z,63.75
2023-10-20T10:25:48.749Z,63.94
2023-10-20T10:28:20.659Z,63.77
2023-10-20T10:30:53.804Z,63.35
2023-10-20T10:33:24.152Z,62.71
2023-10-20T10:36:06.238Z,61.90
2023-10-20T10:38:44.259Z,60.89
2023-10-20T10:41:13.429Z,60.88
2023-10-20T10:43:43.741Z,60.14
2023-10-20T10:46:13.093Z,59.66
2023-10-20T10:48:41.823Z,59.46
2023-10-20T10:51:10.662Z,58.31
2023-10-20T10:53:41.921Z,56.76
2023-10-20T10:56:11.892Z,56.18
2023-10-20T10:58:42.998Z,55.88
2023-10-20T11:01:11.968Z,55.84
2023-10-20T11:03:41.197Z,55.33
2023-10-20T11:06:10.529Z,55.00
2023-10-20T11:08:41.687Z,54.67
2023-10-20T11:11:12.246Z,54.79
2023-10-20T11:13:43.804Z,54.74
2023-10-20T11:16:16.172Z,54.79
2023-10-20T11:18:48.043Z,54.59
2023-10-20T11:21:17.396Z,55.11
2023-10-20T11:23:51.957Z,55.12
2023-10-20T11:26:22.616Z,55.22
2023-10-20T11:28:53.161Z,55.23
2023-10-20T11:31:22.291Z,54.74
2023-10-20T11:33:51.106Z,54.87
2023-10-20T11:36:20.042Z,54.88
2023-10-20T11:38:48.786Z,54.98
2023-10-20T11:41:17.793Z,54.61
2023-10-20T11:43:46.701Z,53.94
2023-10-20T11:46:16.961Z,53.96
2023-10-20T11:48:46.441Z,53.45
2023-10-20T11:51:15.526Z,53.45
2023-10-20T11:53:44.445Z,53.55
2023-10-20T11:56:13.265Z,53.36
2023-10-20T11:58:42.100Z,52.78
2023-10-20T12:01:11.001Z,52.46
2023-10-20T12:03:41.811Z,51.93
2023-10-20T12:06:10.751Z,51.28
2023-10-20T12:08:39.617Z,51.11
2023-10-20T12:11:08.462Z,50.65
2023-10-20T12:13:38.297Z,50.06
2023-10-20T12:16:09.808Z,49.77
2023-10-20T12:18:38.729Z,49.30
2023-10-20T12:21:09.509Z,48.88
2023-10-20T12:23:39.162Z,48.42
2023-10-20T12:26:08.138Z,48.04
2023-10-20T12:28:36.993Z,48.05
2023-10-20T12:31:05.905Z,49.02
2023-10-20T12:33:34.969Z,49.48
2023-10-20T12:36:03.900Z,49.05
2023-10-20T12:38:34.391Z,49.41
2023-10-20T12:41:04.269Z,49.83
2023-10-20T12:43:33.142Z,50.03
2023-10-20T12:46:04.070Z,50.59
2023-10-20T12:48:33.673Z,50.53
2023-10-20T12:51:08.578Z,50.71
2023-10-20T12:53:39.021Z,50.96
2023-10-20T12:56:08.622Z,51.37
2023-10-20T12:58:37.915Z,51.51
2023-10-20T13:01:08.075Z,51.71
2023-10-20T13:03:38.025Z,52.08
2023-10-20T13:06:08.209Z,52.02
2023-10-20T13:08:39.012Z,52.14
2023-10-20T13:11:08.018Z,52.24
2023-10-20T13:13:36.848Z,52.18
2023-10-20T13:16:07.887Z,52.24
2023-10-20T13:18:37.163Z,52.39
2023-10-20T13:21:06.657Z,52.24
2023-10-20T13:23:36.207Z,52.46
2023-10-20T13:26:07.238Z,52.63
2023-10-20T13:28:36.681Z,52.71
2023-10-20T13:31:09.132Z,52.86
2023-10-20T13:33:39.221Z,52.62
2023-10-20T13:36:10.127Z,52.71
2023-10-20T13:38:39.414Z,52.82
2023-10-20T13:41:09.616Z,52.75
2023-10-20T13:43:38.368Z,52.73
2023-10-20T13:46:07.191Z,52.60
2023-10-20T13:48:36.350Z,52.65
2023-10-20T13:51:05.507Z,52.95
2023-10-20T13:53:37.548Z,52.92
2023-10-20T13:56:06.561Z,52.89
2023-10-20T13:58:36.790Z,53.03
2023-10-20T14:01:05.793Z,53.39
2023-10-20T14:03:34.825Z,53.60
2023-10-20T14:06:06.521Z,53.55
2023-10-20T14:08:35.422Z,53.54
2023-10-20T14:11:05.968Z,53.37
2023-10-20T14:13:36.531Z,53.49
2023-10-20T14:16:06.090Z,53.34
2023-10-20T14:18:35.257Z,53.40
2023-10-20T14:21:04.316Z,53.32
2023-10-20T14:23:33.613Z,53.31
2023-10-20T14:26:02.482Z,53.30
2023-10-20T14:28:34.496Z,53.62
2023-10-20T14:31:05.583Z,53.82
2023-10-20T14:33:35.649Z,53.89
2023-10-20T14:36:04.872Z,54.07
2023-10-20T14:38:33.748Z,54.15
2023-10-20T14:41:04.480Z,54.45
2023-10-20T14:43:34.183Z,54.85
2023-10-20T14:46:05.487Z,54.98
2023-10-20T14:48:35.012Z,54.98
2023-10-20T14:51:07.888Z,55.06
2023-10-20T14:53:37.374Z,55.43
2023-10-20T14:56:07.483Z,55.31
2023-10-20T14:58:36.506Z,55.20
2023-10-20T15:01:10.122Z,55.23
2023-10-20T15:03:39.072Z,55.13
2023-10-20T15:06:08.600Z,55.08
2023-10-20T15:08:37.645Z,55.23
2023-10-20T15:11:09.921Z,55.36
2023-10-20T15:13:38.969Z,55.06
2023-10-20T15:16:11.135Z,55.22
2023-10-20T15:18:40.206Z,55.16
2023-10-20T15:21:09.305Z,54.90
2023-10-20T15:23:38.290Z,54.66
2023-10-20T15:26:07.818Z,54.90
2023-10-20T15:28:37.294Z,54.76
2023-10-20T15:31:10.883Z,54.52
2023-10-20T15:33:40.689Z,54.47
2023-10-20T15:36:09.938Z,54.42
2023-10-20T15:38:39.343Z,54.53
2023-10-20T15:41:08.334Z,54.54
2023-10-20T15:43:37.065Z,54.47
2023-10-20T15:46:10.807Z,54.61
2023-10-20T15:48:40.730Z,54.58
2023-10-20T15:51:10.258Z,54.81
2023-10-20T15:53:38.950Z,54.69
2023-10-20T15:56:08.273Z,54.53
2023-10-20T15:58:38.491Z,54.27
2023-10-20T16:01:07.494Z,54.25
2023-10-20T16:03:38.067Z,54.19
2023-10-20T16:06:12.362Z,54.25
2023-10-20T16:08:41.344Z,54.07
2023-10-20T16:11:10.181Z,54.10
2023-10-20T16:13:39.182Z,54.14
2023-10-20T16:16:08.170Z,54.08
2023-10-20T16:18:38.676Z,54.19
2023-10-20T16:21:08.060Z,53.93
2023-10-20T16:23:37.113Z,53.86
2023-10-20T16:26:05.972Z,54.01
2023-10-20T16:28:34.887Z,53.88
2023-10-20T16:31:05.345Z,53.86
2023-10-20T16:33:36.227Z,53.74
2023-10-20T16:36:07.513Z,53.48
2023-10-20T16:38:36.489Z,53.43
2023-10-20T16:41:05.665Z,53.48
2023-10-20T16:43:34.575Z,53.22
2023-10-20T16:46:06.812Z,52.90
2023-10-20T16:48:36.088Z,52.97
2023-10-20T16:51:06.432Z,52.67
2023-10-20T16:53:36.587Z,52.52
2023-10-20T16:56:06.562Z,52.25
2023-10-20T16:58:36.550Z,52.33
2023-10-20T17:01:06.325Z,52.06
2023-10-20T17:03:36.393Z,52.09
2023-10-20T17:06:08.201Z,51.79
2023-10-20T17:08:37.255Z,52.10
2023-10-20T17:11:06.488Z,52.24
2023-10-20T17:13:35.108Z,52.42
2023-10-20T17:16:07.378Z,52.75
2023-10-20T17:18:36.527Z,52.98
2023-10-20T17:21:08.770Z,52.90
2023-10-20T17:23:37.962Z,53.16
2023-10-20T17:26:08.349Z,53.09
2023-10-20T17:28:37.934Z,53.40
2023-10-20T17:31:07.096Z,52.91
2023-10-20T17:33:36.048Z,52.21
2023-10-20T17:36:08.574Z,52.14
2023-10-20T17:38:37.583Z,51.83
2023-10-20T17:41:06.886Z,51.50
2023-10-20T17:43:37.539Z,51.30
2023-10-20T17:46:06.933Z,50.87
2023-10-20T17:51:05.029Z,51.57
2023-10-20T17:53:35.486Z,51.76
2023-10-20T17:56:04.876Z,51.39
2023-10-20T17:58:33.703Z,51.73
2023-10-20T18:01:09.106Z,51.58
2023-10-20T18:03:41.273Z,51.43
2023-10-20T18:06:11.697Z,51.53
2023-10-20T18:08:43.593Z,51.82
2023-10-20T18:11:14.649Z,51.99
2023-10-20T18:13:44.486Z,51.85
2023-10-20T18:16:16.265Z,51.96
2023-10-20T18:18:49.598Z,51.87
2023-10-20T18:21:20.620Z,52.15
2023-10-20T18:23:52.179Z,51.89
2023-10-20T18:26:21.564Z,51.82
2023-10-20T18:28:50.335Z,52.07
2023-10-20T18:31:19.984Z,52.25
2023-10-20T18:33:48.878Z,52.18
2023-10-20T18:36:17.852Z,52.17
2023-10-20T18:38:46.666Z,52.22
2023-10-20T18:41:17.385Z,52.26
2023-10-20T18:43:46.430Z,52.24
2023-10-20T18:46:15.337Z,52.74
2023-10-20T18:48:44.309Z,52.67
2023-10-20T18:51:14.601Z,53.18
2023-10-20T18:53:43.843Z,53.35
2023-10-20T18:56:12.609Z,53.43
2023-10-20T18:58:45.528Z,53.61
2023-10-20T19:01:16.191Z,53.64
2023-10-20T19:03:45.475Z,53.76
2023-10-20T19:06:14.562Z,53.75
2023-10-20T19:08:43.713Z,53.81
2023-10-20T19:11:12.950Z,53.93
2023-10-20T19:13:43.177Z,53.49
2023-10-20T19:16:12.986Z,53.36
2023-10-20T19:18:41.959Z,53.49
2023-10-20T19:21:12.468Z,53.62
2023-10-20T19:23:42.187Z,53.73
2023-10-20T19:26:12.737Z,53.76
2023-10-20T19:28:43.723Z,53.81
2023-10-20T19:31:12.875Z,53.74
2023-10-20T19:33:42.091Z,53.93
2023-10-20T19:36:11.803Z,53.87
2023-10-20T19:38:40.811Z,53.83
2023-10-20T19:41:13.014Z,53.68
2023-10-20T19:43:43.630Z,53.79
2023-10-20T19:46:15.149Z,53.67
2023-10-20T19:48:44.424Z,53.77
2023-10-20T19:51:13.845Z,53.37
2023-10-20T19:53:42.880Z,53.29
2023-10-20T19:56:11.701Z,53.09
2023-10-20T19:58:42.409Z,52.64
2023-10-20T20:01:12.884Z,52.19
2023-10-20T20:03:41.863Z,51.84
2023-10-20T20:06:11.400Z,51.39
2023-10-20T20:08:40.360Z,50.98
2023-10-20T20:11:09.146Z,51.21
2023-10-20T20:13:39.960Z,50.83
2023-10-20T20:16:11.556Z,50.70
2023-10-20T20:18:42.353Z,50.49
2023-10-20T20:21:12.824Z,50.38
2023-10-20T20:23:41.776Z,50.50
2023-10-20T20:26:10.591Z,50.81
2023-10-20T20:28:41.720Z,50.93
2023-10-20T20:31:11.491Z,51.46
2023-10-20T20:33:41.802Z,51.47
2023-10-20T20:36:10.948Z,51.51
2023-10-20T20:38:39.720Z,51.64
2023-10-20T20:41:08.904Z,51.96
2023-10-20T20:43:37.594Z,52.22
2023-10-20T20:46:06.694Z,52.05
2023-10-20T20:48:35.638Z,51.81
2023-10-20T20:51:11.070Z,52.04
2023-10-20T20:53:40.088Z,52.15
2023-10-20T20:56:08.873Z,52.12
2023-10-20T20:58:37.604Z,52.38
2023-10-20T21:01:10.545Z,52.22
2023-10-20T21:03:44.450Z,52.51
2023-10-20T21:06:15.214Z,53.01
2023-10-20T21:08:44.057Z,53.11
2023-10-20T21:11:14.402Z,53.39
2023-10-20T21:13:44.354Z,53.56
2023-10-20T21:16:13.353Z,53.88
2023-10-20T21:18:42.384Z,53.83
2023-10-20T21:21:15.049Z,53.94
2023-10-20T21:23:47.633Z,53.99
2023-10-20T21:26:16.705Z,54.15
2023-10-20T21:28:45.430Z,54.25
2023-10-20T21:31:14.546Z,54.17
2023-10-20T21:33:43.402Z,54.21
2023-10-20T21:36:16.671Z,54.27
2023-10-20T21:38:46.905Z,54.03
2023-10-20T21:41:15.678Z,54.25
2023-10-20T21:43:44.462Z,54.29
2023-10-20T21:46:14.766Z,54.37
2023-10-20T21:48:43.687Z,54.23
2023-10-20T21:51:12.998Z,54.38
2023-10-20T21:53:41.900Z,54.42
2023-10-20T21:56:12.602Z,54.42
2023-10-20T21:58:41.552Z,54.28
2023-10-20T22:01:11.541Z,54.01
2023-10-20T22:03:40.919Z,53.43
2023-10-20T22:06:10.566Z,53.24
2023-10-20T22:08:39.523Z,52.92
2023-10-20T22:11:08.329Z,52.43
2023-10-20T22:13:38.731Z,52.17
2023-10-20T22:16:08.422Z,52.17
2023-10-20T22:18:37.452Z,52.00
2023-10-20T22:21:06.370Z,51.91
2023-10-20T22:23:35.329Z,51.77
2023-10-20T22:26:04.062Z,51.87
2023-10-20T22:28:32.975Z,51.84
2023-10-20T22:31:03.235Z,51.71
2023-10-20T22:33:32.217Z,51.56
2023-10-20T22:36:01.306Z,51.67
2023-10-20T22:38:30.346Z,51.64
2023-10-20T22:40:59.134Z,51.46
2023-10-20T22:43:28.008Z,51.57
2023-10-20T22:45:56.863Z,51.59
2023-10-20T22:48:27.274Z,51.40
2023-10-20T22:50:56.407Z,51.39
2023-10-20T22:53:25.231Z,51.35
2023-10-20T22:55:54.515Z,51.29
2023-10-20T22:58:23.316Z,51.32
2023-10-20T23:00:52.228Z,51.29
2023-10-20T23:03:21.185Z,51.09
2023-10-20T23:05:52.009Z,50.80
2023-10-20T23:08:20.920Z,50.98
2023-10-20T23:10:49.767Z,50.82
2023-10-20T23:13:19.134Z,50.73
2023-10-20T23:15:48.097Z,50.62
2023-10-20T23:18:17.038Z,50.60
2023-10-20T23:20:46.011Z,50.56
2023-10-20T23:23:16.328Z,50.74
2023-10-20T23:25:45.258Z,51.23
2023-10-20T23:28:14.217Z,51.89
2023-10-20T23:30:43.026Z,52.11
2023-10-20T23:33:12.052Z,52.21
2023-10-20T23:35:41.467Z,52.45
2023-10-20T23:38:10.387Z,52.63
2023-10-20T23:40:40.594Z,52.93
2023-10-20T23:43:10.568Z,52.86
2023-10-20T23:45:39.386Z,52.77
2023-10-20T23:48:08.937Z,52.99
2023-10-20T23:50:37.882Z,52.81
2023-10-20T23:53:06.657Z,52.80
2023-10-20T23:55:35.921Z,52.80
2023-10-20T23:58:06.568Z,52.81
